sensor_id;sensor_type;location;lat;lon;timestamp;P1;durP1;ratioP1;P2;durP2;ratioP2
79570;SDS011;69034;49.444;7.758;2023-06-26T00:01:58;6.90;;;3.53;;
79570;SDS011;69034;49.444;7.758;2023-06-26T00:05:59;8.75;;;3.67;;
79570;SDS011;69034;49.444;7.758;2023-06-26T00:10:01;7.20;;;4.03;;
79570;SDS011;69034;49.444;7.758;2023-06-26T00:14:02;7.47;;;3.60;;
79570;SDS011;69034;49.444;7.758;2023-06-26T00:18:03;7.05;;;3.75;;
79570;SDS011;69034;49.444;7.758;2023-06-26T00:22:04;8.23;;;4.07;;
79570;SDS011;69034;49.444;7.758;2023-06-26T00:26:06;7.18;;;4.15;;
79570;SDS011;69034;49.444;7.758;2023-06-26T00:30:07;6.57;;;3.70;;
79570;SDS011;69034;49.444;7.758;2023-06-26T00:34:10;6.65;;;3.90;;
79570;SDS011;69034;49.444;7.758;2023-06-26T00:38:15;6.93;;;3.85;;
79570;SDS011;69034;49.444;7.758;2023-06-26T00:42:17;7.30;;;3.80;;
79570;SDS011;69034;49.444;7.758;2023-06-26T00:46:17;7.13;;;4.03;;
79570;SDS011;69034;49.444;7.758;2023-06-26T00:50:18;8.98;;;3.90;;
79570;SDS011;69034;49.444;7.758;2023-06-26T00:54:19;7.55;;;3.90;;
79570;SDS011;69034;49.444;7.758;2023-06-26T00:58:23;6.72;;;3.63;;
79570;SDS011;69034;49.444;7.758;2023-06-26T01:02:24;5.38;;;3.35;;
79570;SDS011;69034;49.444;7.758;2023-06-26T01:06:31;7.60;;;3.72;;
79570;SDS011;69034;49.444;7.758;2023-06-26T01:10:37;5.75;;;3.40;;
79570;SDS011;69034;49.444;7.758;2023-06-26T01:14:41;7.75;;;4.15;;
79570;SDS011;69034;49.444;7.758;2023-06-26T01:18:42;7.82;;;3.92;;
79570;SDS011;69034;49.444;7.758;2023-06-26T01:26:52;6.90;;;4.13;;
79570;SDS011;69034;49.444;7.758;2023-06-26T01:30:53;7.03;;;3.35;;
79570;SDS011;69034;49.444;7.758;2023-06-26T01:34:56;8.80;;;4.10;;
79570;SDS011;69034;49.444;7.758;2023-06-26T01:38:57;7.65;;;3.55;;
79570;SDS011;69034;49.444;7.758;2023-06-26T01:42:58;8.38;;;4.03;;
79570;SDS011;69034;49.444;7.758;2023-06-26T01:51:04;7.35;;;4.05;;
79570;SDS011;69034;49.444;7.758;2023-06-26T01:55:21;7.22;;;3.67;;
79570;SDS011;69034;49.444;7.758;2023-06-26T01:59:33;6.68;;;3.53;;
79570;SDS011;69034;49.444;7.758;2023-06-26T02:03:34;7.25;;;3.95;;
79570;SDS011;69034;49.444;7.758;2023-06-26T02:07:35;7.47;;;4.28;;
79570;SDS011;69034;49.444;7.758;2023-06-26T02:11:41;7.22;;;3.63;;
79570;SDS011;69034;49.444;7.758;2023-06-26T02:15:43;7.40;;;4.00;;
79570;SDS011;69034;49.444;7.758;2023-06-26T02:19:44;7.03;;;3.80;;
79570;SDS011;69034;49.444;7.758;2023-06-26T02:23:47;7.25;;;3.85;;
79570;SDS011;69034;49.444;7.758;2023-06-26T02:27:48;6.47;;;3.78;;
79570;SDS011;69034;49.444;7.758;2023-06-26T02:31:49;7.07;;;3.90;;
79570;SDS011;69034;49.444;7.758;2023-06-26T02:35:49;9.60;;;3.88;;
79570;SDS011;69034;49.444;7.758;2023-06-26T02:39:50;9.55;;;4.43;;
79570;SDS011;69034;49.444;7.758;2023-06-26T02:43:51;8.18;;;4.07;;
79570;SDS011;69034;49.444;7.758;2023-06-26T02:47:51;7.32;;;4.20;;
79570;SDS011;69034;49.444;7.758;2023-06-26T02:51:52;7.70;;;4.25;;
79570;SDS011;69034;49.444;7.758;2023-06-26T02:55:52;8.23;;;3.80;;
79570;SDS011;69034;49.444;7.758;2023-06-26T02:59:53;8.95;;;4.50;;
79570;SDS011;69034;49.444;7.758;2023-06-26T03:03:54;8.43;;;4.22;;
79570;SDS011;69034;49.444;7.758;2023-06-26T03:07:56;8.05;;;4.18;;
79570;SDS011;69034;49.444;7.758;2023-06-26T03:11:57;8.93;;;4.05;;
79570;SDS011;69034;49.444;7.758;2023-06-26T03:15:58;6.93;;;4.20;;
79570;SDS011;69034;49.444;7.758;2023-06-26T03:19:59;8.02;;;4.57;;
79570;SDS011;69034;49.444;7.758;2023-06-26T03:23:59;8.40;;;3.72;;
79570;SDS011;69034;49.444;7.758;2023-06-26T03:28:00;7.90;;;4.43;;
79570;SDS011;69034;49.444;7.758;2023-06-26T03:32:00;7.40;;;4.30;;
79570;SDS011;69034;49.444;7.758;2023-06-26T03:36:01;9.23;;;4.28;;
79570;SDS011;69034;49.444;7.758;2023-06-26T03:40:04;8.32;;;4.22;;
79570;SDS011;69034;49.444;7.758;2023-06-26T03:44:06;8.45;;;4.22;;
79570;SDS011;69034;49.444;7.758;2023-06-26T03:48:07;8.93;;;4.70;;
79570;SDS011;69034;49.444;7.758;2023-06-26T03:52:08;6.80;;;4.15;;
79570;SDS011;69034;49.444;7.758;2023-06-26T03:56:08;7.28;;;3.83;;
79570;SDS011;69034;49.444;7.758;2023-06-26T04:00:09;7.53;;;3.80;;
79570;SDS011;69034;49.444;7.758;2023-06-26T04:04:13;9.18;;;3.97;;
79570;SDS011;69034;49.444;7.758;2023-06-26T04:08:13;8.48;;;3.95;;
79570;SDS011;69034;49.444;7.758;2023-06-26T04:12:14;7.82;;;4.60;;
79570;SDS011;69034;49.444;7.758;2023-06-26T04:16:15;7.70;;;3.78;;
79570;SDS011;69034;49.444;7.758;2023-06-26T04:20:15;7.47;;;4.05;;
79570;SDS011;69034;49.444;7.758;2023-06-26T04:24:16;9.52;;;3.90;;
79570;SDS011;69034;49.444;7.758;2023-06-26T04:28:18;8.13;;;4.07;;
79570;SDS011;69034;49.444;7.758;2023-06-26T04:32:18;7.75;;;4.22;;
79570;SDS011;69034;49.444;7.758;2023-06-26T04:36:19;8.90;;;4.45;;
79570;SDS011;69034;49.444;7.758;2023-06-26T04:40:20;7.85;;;4.70;;
79570;SDS011;69034;49.444;7.758;2023-06-26T04:44:21;8.43;;;4.47;;
79570;SDS011;69034;49.444;7.758;2023-06-26T04:48:22;9.00;;;4.63;;
79570;SDS011;69034;49.444;7.758;2023-06-26T04:52:22;7.07;;;3.92;;
79570;SDS011;69034;49.444;7.758;2023-06-26T04:56:23;9.40;;;4.28;;
79570;SDS011;69034;49.444;7.758;2023-06-26T05:00:24;9.30;;;4.30;;
79570;SDS011;69034;49.444;7.758;2023-06-26T05:04:27;10.13;;;4.55;;
79570;SDS011;69034;49.444;7.758;2023-06-26T05:08:27;8.90;;;4.38;;
79570;SDS011;69034;49.444;7.758;2023-06-26T05:12:30;11.50;;;4.57;;
79570;SDS011;69034;49.444;7.758;2023-06-26T05:16:31;9.32;;;5.22;;
79570;SDS011;69034;49.444;7.758;2023-06-26T05:20:31;7.38;;;4.38;;
79570;SDS011;69034;49.444;7.758;2023-06-26T05:24:33;10.75;;;5.90;;
79570;SDS011;69034;49.444;7.758;2023-06-26T05:28:35;12.05;;;4.80;;
79570;SDS011;69034;49.444;7.758;2023-06-26T05:32:37;10.85;;;5.25;;
79570;SDS011;69034;49.444;7.758;2023-06-26T05:36:41;8.85;;;4.57;;
79570;SDS011;69034;49.444;7.758;2023-06-26T05:40:43;8.55;;;4.88;;
79570;SDS011;69034;49.444;7.758;2023-06-26T05:44:44;9.05;;;5.57;;
79570;SDS011;69034;49.444;7.758;2023-06-26T05:48:45;10.65;;;4.65;;
79570;SDS011;69034;49.444;7.758;2023-06-26T05:52:47;8.40;;;4.10;;
79570;SDS011;69034;49.444;7.758;2023-06-26T05:56:48;8.30;;;4.25;;
79570;SDS011;69034;49.444;7.758;2023-06-26T06:00:52;8.07;;;4.25;;
79570;SDS011;69034;49.444;7.758;2023-06-26T06:04:54;10.02;;;5.18;;
79570;SDS011;69034;49.444;7.758;2023-06-26T06:08:55;11.40;;;5.07;;
79570;SDS011;69034;49.444;7.758;2023-06-26T06:12:56;8.85;;;4.65;;
79570;SDS011;69034;49.444;7.758;2023-06-26T06:16:58;8.77;;;4.32;;
79570;SDS011;69034;49.444;7.758;2023-06-26T06:20:59;8.07;;;4.28;;
79570;SDS011;69034;49.444;7.758;2023-06-26T06:25:00;10.02;;;4.38;;
79570;SDS011;69034;49.444;7.758;2023-06-26T06:29:00;9.35;;;4.18;;
79570;SDS011;69034;49.444;7.758;2023-06-26T06:33:01;7.25;;;4.10;;
79570;SDS011;69034;49.444;7.758;2023-06-26T06:37:02;8.57;;;3.80;;
79570;SDS011;69034;49.444;7.758;2023-06-26T06:41:03;7.88;;;4.55;;
79570;SDS011;69034;49.444;7.758;2023-06-26T06:45:04;7.78;;;4.03;;
79570;SDS011;69034;49.444;7.758;2023-06-26T06:49:06;10.20;;;4.65;;
79570;SDS011;69034;49.444;7.758;2023-06-26T06:53:08;7.90;;;3.88;;
79570;SDS011;69034;49.444;7.758;2023-06-26T06:57:08;11.15;;;3.95;;
79570;SDS011;69034;49.444;7.758;2023-06-26T07:01:09;6.78;;;3.75;;
79570;SDS011;69034;49.444;7.758;2023-06-26T07:05:10;11.23;;;4.63;;
79570;SDS011;69034;49.444;7.758;2023-06-26T07:09:11;11.50;;;4.63;;
79570;SDS011;69034;49.444;7.758;2023-06-26T07:13:12;6.93;;;4.40;;
79570;SDS011;69034;49.444;7.758;2023-06-26T07:17:13;7.90;;;3.85;;
79570;SDS011;69034;49.444;7.758;2023-06-26T07:21:13;8.88;;;4.05;;
79570;SDS011;69034;49.444;7.758;2023-06-26T07:25:16;7.53;;;4.10;;
79570;SDS011;69034;49.444;7.758;2023-06-26T07:29:17;7.10;;;4.00;;
79570;SDS011;69034;49.444;7.758;2023-06-26T07:33:19;6.57;;;4.07;;
79570;SDS011;69034;49.444;7.758;2023-06-26T07:37:20;8.05;;;4.80;;
79570;SDS011;69034;49.444;7.758;2023-06-26T07:41:21;7.45;;;3.92;;
79570;SDS011;69034;49.444;7.758;2023-06-26T07:45:22;6.97;;;4.15;;
79570;SDS011;69034;49.444;7.758;2023-06-26T07:49:22;6.53;;;3.80;;
79570;SDS011;69034;49.444;7.758;2023-06-26T07:53:23;7.85;;;4.65;;
79570;SDS011;69034;49.444;7.758;2023-06-26T07:57:24;7.28;;;4.03;;
79570;SDS011;69034;49.444;7.758;2023-06-26T08:01:25;8.65;;;4.65;;
79570;SDS011;69034;49.444;7.758;2023-06-26T08:05:25;8.68;;;4.25;;
79570;SDS011;69034;49.444;7.758;2023-06-26T08:09:27;8.27;;;3.88;;
79570;SDS011;69034;49.444;7.758;2023-06-26T08:13:29;8.63;;;4.15;;
79570;SDS011;69034;49.444;7.758;2023-06-26T08:17:31;7.82;;;4.32;;
79570;SDS011;69034;49.444;7.758;2023-06-26T08:21:32;10.73;;;4.90;;
79570;SDS011;69034;49.444;7.758;2023-06-26T08:25:34;9.65;;;4.40;;
79570;SDS011;69034;49.444;7.758;2023-06-26T08:29:35;9.00;;;4.57;;
79570;SDS011;69034;49.444;7.758;2023-06-26T08:33:36;6.55;;;3.85;;
79570;SDS011;69034;49.444;7.758;2023-06-26T08:37:37;10.77;;;4.90;;
79570;SDS011;69034;49.444;7.758;2023-06-26T08:41:38;7.30;;;4.38;;
79570;SDS011;69034;49.444;7.758;2023-06-26T08:45:40;6.70;;;4.57;;
79570;SDS011;69034;49.444;7.758;2023-06-26T08:54:03;8.27;;;4.60;;
79570;SDS011;69034;49.444;7.758;2023-06-26T08:58:09;7.07;;;4.00;;
79570;SDS011;69034;49.444;7.758;2023-06-26T09:02:12;9.68;;;4.07;;
79570;SDS011;69034;49.444;7.758;2023-06-26T09:06:12;6.22;;;3.63;;
79570;SDS011;69034;49.444;7.758;2023-06-26T09:10:13;6.03;;;3.72;;
79570;SDS011;69034;49.444;7.758;2023-06-26T09:14:14;8.32;;;3.95;;
79570;SDS011;69034;49.444;7.758;2023-06-26T09:18:18;7.82;;;4.13;;
79570;SDS011;69034;49.444;7.758;2023-06-26T09:22:23;7.72;;;3.42;;
79570;SDS011;69034;49.444;7.758;2023-06-26T09:26:24;5.90;;;3.47;;
79570;SDS011;69034;49.444;7.758;2023-06-26T09:30:28;7.30;;;3.67;;
79570;SDS011;69034;49.444;7.758;2023-06-26T09:34:32;6.22;;;3.85;;
79570;SDS011;69034;49.444;7.758;2023-06-26T09:38:34;6.03;;;3.45;;
79570;SDS011;69034;49.444;7.758;2023-06-26T09:42:35;7.65;;;3.63;;
79570;SDS011;69034;49.444;7.758;2023-06-26T09:46:37;5.93;;;3.30;;
79570;SDS011;69034;49.444;7.758;2023-06-26T09:50:38;7.93;;;3.15;;
79570;SDS011;69034;49.444;7.758;2023-06-26T09:54:45;8.10;;;3.42;;
79570;SDS011;69034;49.444;7.758;2023-06-26T09:58:46;7.57;;;3.58;;
79570;SDS011;69034;49.444;7.758;2023-06-26T10:02:47;5.30;;;3.22;;
79570;SDS011;69034;49.444;7.758;2023-06-26T10:06:48;5.28;;;3.10;;
79570;SDS011;69034;49.444;7.758;2023-06-26T10:10:51;6.07;;;3.25;;
79570;SDS011;69034;49.444;7.758;2023-06-26T10:14:55;7.05;;;2.58;;
79570;SDS011;69034;49.444;7.758;2023-06-26T10:19:02;6.45;;;3.30;;
79570;SDS011;69034;49.444;7.758;2023-06-26T10:23:06;6.10;;;2.97;;
79570;SDS011;69034;49.444;7.758;2023-06-26T10:27:14;6.60;;;3.35;;
79570;SDS011;69034;49.444;7.758;2023-06-26T10:31:21;4.80;;;2.90;;
79570;SDS011;69034;49.444;7.758;2023-06-26T10:35:25;7.28;;;3.40;;
79570;SDS011;69034;49.444;7.758;2023-06-26T10:39:48;6.10;;;3.70;;
79570;SDS011;69034;49.444;7.758;2023-06-26T10:44:10;5.57;;;3.15;;
79570;SDS011;69034;49.444;7.758;2023-06-26T10:48:21;5.80;;;3.08;;
79570;SDS011;69034;49.444;7.758;2023-06-26T10:52:25;6.32;;;3.63;;
79570;SDS011;69034;49.444;7.758;2023-06-26T11:00:50;5.93;;;3.38;;
79570;SDS011;69034;49.444;7.758;2023-06-26T11:04:50;5.70;;;3.00;;
79570;SDS011;69034;49.444;7.758;2023-06-26T11:08:59;8.88;;;4.20;;
79570;SDS011;69034;49.444;7.758;2023-06-26T11:13:05;7.18;;;3.80;;
79570;SDS011;69034;49.444;7.758;2023-06-26T11:17:07;7.03;;;3.10;;
79570;SDS011;69034;49.444;7.758;2023-06-26T11:21:08;5.45;;;3.53;;
79570;SDS011;69034;49.444;7.758;2023-06-26T11:25:10;5.50;;;3.60;;
79570;SDS011;69034;49.444;7.758;2023-06-26T11:29:12;6.90;;;3.72;;
79570;SDS011;69034;49.444;7.758;2023-06-26T11:33:14;8.95;;;3.80;;
79570;SDS011;69034;49.444;7.758;2023-06-26T11:37:17;7.68;;;3.53;;
79570;SDS011;69034;49.444;7.758;2023-06-26T11:41:19;9.32;;;4.60;;
79570;SDS011;69034;49.444;7.758;2023-06-26T11:45:24;9.23;;;4.97;;
79570;SDS011;69034;49.444;7.758;2023-06-26T11:49:25;9.73;;;4.60;;
79570;SDS011;69034;49.444;7.758;2023-06-26T11:53:27;7.22;;;4.03;;
79570;SDS011;69034;49.444;7.758;2023-06-26T11:57:30;5.50;;;3.45;;
79570;SDS011;69034;49.444;7.758;2023-06-26T12:01:38;7.07;;;3.38;;
79570;SDS011;69034;49.444;7.758;2023-06-26T12:09:46;9.60;;;3.80;;
79570;SDS011;69034;49.444;7.758;2023-06-26T12:13:49;12.05;;;2.90;;
79570;SDS011;69034;49.444;7.758;2023-06-26T12:17:51;6.80;;;2.78;;
79570;SDS011;69034;49.444;7.758;2023-06-26T12:21:53;4.35;;;2.65;;
79570;SDS011;69034;49.444;7.758;2023-06-26T12:25:56;3.97;;;2.05;;
79570;SDS011;69034;49.444;7.758;2023-06-26T12:29:56;4.45;;;2.00;;
79570;SDS011;69034;49.444;7.758;2023-06-26T12:33:57;4.35;;;1.83;;
79570;SDS011;69034;49.444;7.758;2023-06-26T12:37:58;4.25;;;2.40;;
79570;SDS011;69034;49.444;7.758;2023-06-26T12:42:00;4.05;;;1.90;;
79570;SDS011;69034;49.444;7.758;2023-06-26T12:46:01;5.15;;;2.10;;
79570;SDS011;69034;49.444;7.758;2023-06-26T12:50:04;4.65;;;2.08;;
79570;SDS011;69034;49.444;7.758;2023-06-26T12:54:05;5.28;;;1.63;;
79570;SDS011;69034;49.444;7.758;2023-06-26T12:58:06;4.78;;;1.50;;
79570;SDS011;69034;49.444;7.758;2023-06-26T13:02:07;5.60;;;1.92;;
79570;SDS011;69034;49.444;7.758;2023-06-26T13:06:08;6.63;;;1.70;;
79570;SDS011;69034;49.444;7.758;2023-06-26T13:10:09;5.72;;;1.55;;
79570;SDS011;69034;49.444;7.758;2023-06-26T13:14:10;3.95;;;1.70;;
79570;SDS011;69034;49.444;7.758;2023-06-26T13:18:12;4.45;;;1.52;;
79570;SDS011;69034;49.444;7.758;2023-06-26T13:22:13;4.45;;;1.50;;
79570;SDS011;69034;49.444;7.758;2023-06-26T13:26:16;2.97;;;1.40;;
79570;SDS011;69034;49.444;7.758;2023-06-26T13:30:18;5.53;;;1.95;;
79570;SDS011;69034;49.444;7.758;2023-06-26T13:34:20;3.22;;;1.45;;
79570;SDS011;69034;49.444;7.758;2023-06-26T13:38:25;4.95;;;2.00;;
79570;SDS011;69034;49.444;7.758;2023-06-26T13:42:26;6.18;;;1.75;;
79570;SDS011;69034;49.444;7.758;2023-06-26T13:46:27;5.05;;;1.63;;
79570;SDS011;69034;49.444;7.758;2023-06-26T13:50:29;4.28;;;1.33;;
79570;SDS011;69034;49.444;7.758;2023-06-26T13:54:29;7.50;;;1.60;;
79570;SDS011;69034;49.444;7.758;2023-06-26T13:58:31;4.38;;;1.90;;
79570;SDS011;69034;49.444;7.758;2023-06-26T14:06:36;7.72;;;2.10;;
79570;SDS011;69034;49.444;7.758;2023-06-26T14:10:38;5.35;;;1.95;;
79570;SDS011;69034;49.444;7.758;2023-06-26T14:14:39;6.20;;;1.60;;
79570;SDS011;69034;49.444;7.758;2023-06-26T14:18:40;5.97;;;1.95;;
79570;SDS011;69034;49.444;7.758;2023-06-26T14:22:42;5.45;;;1.80;;
79570;SDS011;69034;49.444;7.758;2023-06-26T14:26:43;6.43;;;1.83;;
79570;SDS011;69034;49.444;7.758;2023-06-26T14:30:44;3.33;;;1.35;;
79570;SDS011;69034;49.444;7.758;2023-06-26T14:34:45;5.32;;;1.70;;
79570;SDS011;69034;49.444;7.758;2023-06-26T14:38:47;5.60;;;1.33;;
79570;SDS011;69034;49.444;7.758;2023-06-26T14:42:49;3.50;;;1.30;;
79570;SDS011;69034;49.444;7.758;2023-06-26T14:46:49;4.60;;;1.40;;
79570;SDS011;69034;49.444;7.758;2023-06-26T14:50:50;3.00;;;1.45;;
79570;SDS011;69034;49.444;7.758;2023-06-26T14:54:50;6.07;;;3.05;;
79570;SDS011;69034;49.444;7.758;2023-06-26T14:58:57;6.35;;;2.28;;
79570;SDS011;69034;49.444;7.758;2023-06-26T15:02:58;3.72;;;1.40;;
79570;SDS011;69034;49.444;7.758;2023-06-26T15:06:58;4.28;;;1.50;;
79570;SDS011;69034;49.444;7.758;2023-06-26T15:11:00;4.85;;;1.60;;
79570;SDS011;69034;49.444;7.758;2023-06-26T15:15:01;4.97;;;1.45;;
79570;SDS011;69034;49.444;7.758;2023-06-26T15:19:03;3.20;;;1.45;;
79570;SDS011;69034;49.444;7.758;2023-06-26T15:23:04;5.32;;;1.75;;
79570;SDS011;69034;49.444;7.758;2023-06-26T15:27:05;2.80;;;1.20;;
79570;SDS011;69034;49.444;7.758;2023-06-26T15:31:05;3.28;;;1.30;;
79570;SDS011;69034;49.444;7.758;2023-06-26T15:35:06;3.67;;;1.40;;
79570;SDS011;69034;49.444;7.758;2023-06-26T15:39:08;3.63;;;1.20;;
79570;SDS011;69034;49.444;7.758;2023-06-26T15:43:09;3.88;;;1.40;;
79570;SDS011;69034;49.444;7.758;2023-06-26T15:47:09;6.68;;;1.50;;
79570;SDS011;69034;49.444;7.758;2023-06-26T15:51:10;4.65;;;1.42;;
79570;SDS011;69034;49.444;7.758;2023-06-26T15:55:14;4.28;;;1.55;;
79570;SDS011;69034;49.444;7.758;2023-06-26T15:59:15;4.35;;;1.27;;
79570;SDS011;69034;49.444;7.758;2023-06-26T16:03:19;7.25;;;1.35;;
79570;SDS011;69034;49.444;7.758;2023-06-26T16:07:19;5.35;;;1.83;;
79570;SDS011;69034;49.444;7.758;2023-06-26T16:11:20;3.95;;;1.00;;
79570;SDS011;69034;49.444;7.758;2023-06-26T16:15:21;5.05;;;1.95;;
79570;SDS011;69034;49.444;7.758;2023-06-26T16:19:22;8.68;;;1.50;;
79570;SDS011;69034;49.444;7.758;2023-06-26T16:23:24;5.72;;;1.83;;
79570;SDS011;69034;49.444;7.758;2023-06-26T16:27:25;3.03;;;1.35;;
79570;SDS011;69034;49.444;7.758;2023-06-26T16:31:25;4.68;;;1.27;;
79570;SDS011;69034;49.444;7.758;2023-06-26T16:35:26;6.07;;;1.50;;
79570;SDS011;69034;49.444;7.758;2023-06-26T16:39:30;3.78;;;1.17;;
79570;SDS011;69034;49.444;7.758;2023-06-26T16:43:31;3.05;;;1.15;;
79570;SDS011;69034;49.444;7.758;2023-06-26T16:47:33;5.22;;;1.60;;
79570;SDS011;69034;49.444;7.758;2023-06-26T16:51:34;2.53;;;1.10;;
79570;SDS011;69034;49.444;7.758;2023-06-26T16:55:34;3.45;;;1.40;;
79570;SDS011;69034;49.444;7.758;2023-06-26T16:59:36;4.28;;;1.30;;
79570;SDS011;69034;49.444;7.758;2023-06-26T17:03:36;5.20;;;1.65;;
79570;SDS011;69034;49.444;7.758;2023-06-26T17:07:37;5.80;;;1.45;;
79570;SDS011;69034;49.444;7.758;2023-06-26T17:11:40;3.25;;;1.40;;
79570;SDS011;69034;49.444;7.758;2023-06-26T17:15:45;2.75;;;1.30;;
79570;SDS011;69034;49.444;7.758;2023-06-26T17:19:47;5.32;;;1.50;;
79570;SDS011;69034;49.444;7.758;2023-06-26T17:23:48;3.90;;;1.48;;
79570;SDS011;69034;49.444;7.758;2023-06-26T17:27:49;4.10;;;1.17;;
79570;SDS011;69034;49.444;7.758;2023-06-26T17:31:49;7.00;;;1.58;;
79570;SDS011;69034;49.444;7.758;2023-06-26T17:35:50;5.00;;;1.40;;
79570;SDS011;69034;49.444;7.758;2023-06-26T17:39:51;7.95;;;1.60;;
79570;SDS011;69034;49.444;7.758;2023-06-26T17:43:56;3.70;;;1.40;;
79570;SDS011;69034;49.444;7.758;2023-06-26T17:47:57;4.45;;;1.30;;
79570;SDS011;69034;49.444;7.758;2023-06-26T17:51:58;5.80;;;1.33;;
79570;SDS011;69034;49.444;7.758;2023-06-26T17:56:00;6.20;;;1.55;;
79570;SDS011;69034;49.444;7.758;2023-06-26T18:00:01;6.95;;;1.55;;
79570;SDS011;69034;49.444;7.758;2023-06-26T18:04:04;6.03;;;1.15;;
79570;SDS011;69034;49.444;7.758;2023-06-26T18:08:06;5.30;;;1.40;;
79570;SDS011;69034;49.444;7.758;2023-06-26T18:12:10;3.53;;;1.40;;
79570;SDS011;69034;49.444;7.758;2023-06-26T18:16:13;4.43;;;1.17;;
79570;SDS011;69034;49.444;7.758;2023-06-26T18:20:14;3.72;;;1.45;;
79570;SDS011;69034;49.444;7.758;2023-06-26T18:24:14;3.75;;;1.38;;
79570;SDS011;69034;49.444;7.758;2023-06-26T18:28:16;3.83;;;1.35;;
79570;SDS011;69034;49.444;7.758;2023-06-26T18:32:16;3.15;;;1.17;;
79570;SDS011;69034;49.444;7.758;2023-06-26T18:36:17;4.93;;;1.52;;
79570;SDS011;69034;49.444;7.758;2023-06-26T18:40:18;4.00;;;1.42;;
79570;SDS011;69034;49.444;7.758;2023-06-26T18:44:19;2.88;;;1.40;;
79570;SDS011;69034;49.444;7.758;2023-06-26T18:48:19;3.28;;;1.20;;
79570;SDS011;69034;49.444;7.758;2023-06-26T18:52:21;3.30;;;1.15;;
79570;SDS011;69034;49.444;7.758;2023-06-26T18:56:21;2.83;;;1.20;;
79570;SDS011;69034;49.444;7.758;2023-06-26T19:00:23;4.40;;;1.00;;
79570;SDS011;69034;49.444;7.758;2023-06-26T19:04:23;3.65;;;1.23;;
79570;SDS011;69034;49.444;7.758;2023-06-26T19:08:25;3.97;;;1.13;;
79570;SDS011;69034;49.444;7.758;2023-06-26T19:12:26;4.63;;;1.45;;
79570;SDS011;69034;49.444;7.758;2023-06-26T19:16:29;4.50;;;1.20;;
79570;SDS011;69034;49.444;7.758;2023-06-26T19:20:29;3.85;;;1.20;;
79570;SDS011;69034;49.444;7.758;2023-06-26T19:24:30;7.57;;;1.42;;
79570;SDS011;69034;49.444;7.758;2023-06-26T19:28:31;5.75;;;1.60;;
79570;SDS011;69034;49.444;7.758;2023-06-26T19:32:31;3.40;;;1.27;;
79570;SDS011;69034;49.444;7.758;2023-06-26T19:36:32;3.30;;;1.13;;
79570;SDS011;69034;49.444;7.758;2023-06-26T19:40:33;4.10;;;1.05;;
79570;SDS011;69034;49.444;7.758;2023-06-26T19:44:35;4.07;;;1.17;;
79570;SDS011;69034;49.444;7.758;2023-06-26T19:48:36;4.28;;;1.27;;
79570;SDS011;69034;49.444;7.758;2023-06-26T19:52:37;3.20;;;1.40;;
79570;SDS011;69034;49.444;7.758;2023-06-26T19:56:39;3.47;;;0.88;;
79570;SDS011;69034;49.444;7.758;2023-06-26T20:00:41;4.05;;;1.23;;
79570;SDS011;69034;49.444;7.758;2023-06-26T20:04:41;3.10;;;1.23;;
79570;SDS011;69034;49.444;7.758;2023-06-26T20:08:42;5.40;;;1.20;;
79570;SDS011;69034;49.444;7.758;2023-06-26T20:12:44;3.20;;;1.13;;
79570;SDS011;69034;49.444;7.758;2023-06-26T20:16:44;5.55;;;1.20;;
79570;SDS011;69034;49.444;7.758;2023-06-26T20:20:45;3.75;;;1.15;;
79570;SDS011;69034;49.444;7.758;2023-06-26T20:24:46;3.67;;;1.10;;
79570;SDS011;69034;49.444;7.758;2023-06-26T20:28:47;3.97;;;1.10;;
79570;SDS011;69034;49.444;7.758;2023-06-26T20:32:49;4.18;;;1.52;;
79570;SDS011;69034;49.444;7.758;2023-06-26T20:36:49;4.78;;;1.45;;
79570;SDS011;69034;49.444;7.758;2023-06-26T20:40:50;4.97;;;1.48;;
79570;SDS011;69034;49.444;7.758;2023-06-26T20:44:51;4.00;;;1.27;;
79570;SDS011;69034;49.444;7.758;2023-06-26T20:48:53;3.75;;;1.30;;
79570;SDS011;69034;49.444;7.758;2023-06-26T20:52:55;5.65;;;1.33;;
79570;SDS011;69034;49.444;7.758;2023-06-26T20:56:56;6.75;;;1.50;;
79570;SDS011;69034;49.444;7.758;2023-06-26T21:00:57;6.93;;;1.20;;
79570;SDS011;69034;49.444;7.758;2023-06-26T21:04:57;3.28;;;1.25;;
79570;SDS011;69034;49.444;7.758;2023-06-26T21:08:58;2.22;;;0.90;;
79570;SDS011;69034;49.444;7.758;2023-06-26T21:12:58;4.25;;;1.30;;
79570;SDS011;69034;49.444;7.758;2023-06-26T21:16:59;4.75;;;1.20;;
79570;SDS011;69034;49.444;7.758;2023-06-26T21:21:01;2.72;;;1.00;;
79570;SDS011;69034;49.444;7.758;2023-06-26T21:25:02;4.80;;;1.20;;
79570;SDS011;69034;49.444;7.758;2023-06-26T21:29:05;4.18;;;1.48;;
79570;SDS011;69034;49.444;7.758;2023-06-26T21:33:06;2.60;;;1.10;;
79570;SDS011;69034;49.444;7.758;2023-06-26T21:37:07;3.20;;;1.02;;
79570;SDS011;69034;49.444;7.758;2023-06-26T21:41:07;3.80;;;1.25;;
79570;SDS011;69034;49.444;7.758;2023-06-26T21:45:08;4.03;;;1.40;;
79570;SDS011;69034;49.444;7.758;2023-06-26T21:49:09;3.90;;;1.50;;
79570;SDS011;69034;49.444;7.758;2023-06-26T21:53:10;3.95;;;1.23;;
79570;SDS011;69034;49.444;7.758;2023-06-26T21:57:11;3.33;;;1.35;;
79570;SDS011;69034;49.444;7.758;2023-06-26T22:01:11;3.85;;;1.30;;
79570;SDS011;69034;49.444;7.758;2023-06-26T22:05:12;4.60;;;1.40;;
79570;SDS011;69034;49.444;7.758;2023-06-26T22:09:13;5.55;;;1.55;;
79570;SDS011;69034;49.444;7.758;2023-06-26T22:13:14;6.22;;;1.10;;
79570;SDS011;69034;49.444;7.758;2023-06-26T22:17:15;3.55;;;1.20;;
79570;SDS011;69034;49.444;7.758;2023-06-26T22:21:16;7.82;;;2.08;;
79570;SDS011;69034;49.444;7.758;2023-06-26T22:25:19;3.58;;;1.15;;
79570;SDS011;69034;49.444;7.758;2023-06-26T22:29:20;6.55;;;0.98;;
79570;SDS011;69034;49.444;7.758;2023-06-26T22:33:21;5.32;;;1.38;;
79570;SDS011;69034;49.444;7.758;2023-06-26T22:37:22;4.50;;;1.35;;
79570;SDS011;69034;49.444;7.758;2023-06-26T22:41:22;5.30;;;1.65;;
79570;SDS011;69034;49.444;7.758;2023-06-26T22:45:23;3.90;;;1.65;;
79570;SDS011;69034;49.444;7.758;2023-06-26T22:49:24;3.67;;;1.35;;
79570;SDS011;69034;49.444;7.758;2023-06-26T22:53:24;3.92;;;1.00;;
79570;SDS011;69034;49.444;7.758;2023-06-26T22:57:25;4.05;;;0.98;;
79570;SDS011;69034;49.444;7.758;2023-06-26T23:01:26;4.45;;;0.90;;
79570;SDS011;69034;49.444;7.758;2023-06-26T23:05:27;4.68;;;1.08;;
79570;SDS011;69034;49.444;7.758;2023-06-26T23:09:29;4.15;;;1.02;;
79570;SDS011;69034;49.444;7.758;2023-06-26T23:13:29;3.92;;;1.13;;
79570;SDS011;69034;49.444;7.758;2023-06-26T23:17:31;4.18;;;1.30;;
79570;SDS011;69034;49.444;7.758;2023-06-26T23:21:35;7.47;;;1.20;;
79570;SDS011;69034;49.444;7.758;2023-06-26T23:25:36;4.97;;;1.50;;
79570;SDS011;69034;49.444;7.758;2023-06-26T23:29:40;4.07;;;1.45;;
79570;SDS011;69034;49.444;7.758;2023-06-26T23:33:44;6.55;;;1.30;;
79570;SDS011;69034;49.444;7.758;2023-06-26T23:37:47;5.60;;;1.25;;
79570;SDS011;69034;49.444;7.758;2023-06-26T23:42:01;3.22;;;1.52;;
79570;SDS011;69034;49.444;7.758;2023-06-26T23:46:04;3.80;;;1.33;;
79570;SDS011;69034;49.444;7.758;2023-06-26T23:50:05;2.25;;;0.95;;
79570;SDS011;69034;49.444;7.758;2023-06-26T23:54:07;3.63;;;1.40;;
